Flight EZE1310

  • Submitted By: Dave Hardy
  • Departure Airport: Cardiff (EGFF)
  • Arrival Airport: Perpignan-Rivesaltes (LFMP)
  • Aircraft: SB20 (G-CDEA)
  • Flight Time: 2.03
  • Date Submitted: 05/10/2009
  • Status: Accepted
Flight Details
Gross Revenue:
(45 load / £ 0.00 per unit
£ 0.00
Fuel Cost:
(4693 fuel used @ 0 / unit)
£ 0.00

Flight Details

  • VATAWARE Link: -

Additional Log Information:

View Log

[2009/05/11 08:12:00]
Flight IATA:EZE1310
Pilot Number:EZE0001
Company ICAO:EZE
Aircraft Type:SB20
PAX:45
Aircraft Registration:SB20
Departing Airport: EGFF
Destination Airport: LFMP
Online: VATSIM
Route:EXMOR N864 BHD N862 SKESO UN862 DIN UP87 GODAN UN862 TERPO UM616 TUPAR UM184 CNA UN863 SECHE UT24 GAI UP84 PPG UN855 KANIG
Flight Level:27000
08:12 Zero fuel Weight: 39784 Lbs, Fuel Weight: 10273 Lbs
08:12 VATSIM:EGFF 100250Z 03002KT 9999 FEW008 08/07 Q1017
08:12 VATSIM:LFMP 100300Z AUTO 10005KT 9999NDV SCT100 BKN140 OVC170 15/14 Q1016
08:19 Parking Brakes off
08:19 Com1 Freq=122.80
08:22 Com1 Freq=123.80
08:22 Com1 Freq=125.80
08:22 Com1 Freq=126.80
08:22 Com1 Freq=125.80
08:22 Com1 Freq=125.82
08:22 Com1 Freq=125.85
08:29 VR= 166 Knots
08:29 V2= 175 Knots
08:29 Take-off
08:29 Take off Weight: 49673 Lbs
08:29 Wind: 076 @ 006 Knots Heading: 299
08:29 POS N51 23 51 W003 20 46
08:29 N11 133 N12 133
08:29 Gear Up: 179 Knots
08:29 Flaps: at 179 Knots
08:30 Com1 Freq=122.85
08:30 Com1 Freq=122.82
08:30 Com1 Freq=122.80
08:44 Wind:227@024 Knots Heading: 189 Ground Speed: 271 Knots Altitude 25265 ft
08:44 Flaps:Up at 203 Knots
08:44 TOC
08:44 Fuel Weight: 8838 Lb
08:50 Com1 Freq=128.10
08:50 Com1 Freq=129.10
08:50 Com1 Freq=125.10
08:50 Com1 Freq=122.80
08:50 Com1 Freq=125.10
08:50 Com1 Freq=122.80
08:59 Wind:204@042 Knots Heading: 158 Ground Speed: 344 Knots Altitude 27020 ft
09:14 Wind:208@023 Knots Heading: 177 Ground Speed: 348 Knots Altitude 26968 ft
09:15 Com1 Freq=125.10
09:29 Wind:186@028 Knots Heading: 141 Ground Speed: 350 Knots Altitude 26958 ft
09:33 Com1 Freq=122.80
09:33 Com1 Freq=125.10
09:44 Wind:182@028 Knots Heading: 156 Ground Speed: 336 Knots Altitude 26938 ft
09:59 Wind:237@029 Knots Heading: 118 Ground Speed: 379 Knots Altitude 26935 ft
10:05 TOD
10:05 Fuel Weight: 5936 Lb
10:11 Com1 Freq=122.80
10:14 Wind:198@013 Knots Heading: 151 Ground Speed: 268 Knots Altitude 8015 ft
10:15 Flaps: at 243 Knots
10:16 Flaps: at 218 Knots
10:16 Gear Down: 215 Knots
10:19 Flaps: at 170 Knots
10:19 TouchDown:Rate -135 ft/min Speed: 137 Knots
10:19 VATSIM:LFMP 100300Z AUTO 10005KT 9999NDV SCT100 BKN140 OVC170 15/14 Q1016
10:19 Land
10:19 Wind:062@008 Knots
10:19 Heading: 145
10:19 Flight Duration: 01:50
10:19 Landing Weight: 45399 Lbs
10:19 POS N42 44 32 E002 52 17
10:22 Parking brakes on
10:22 Block to Block Duration: 02:03
10:22 Final Fuel: 5579 Lbls
10:22 Spent Fuel: 4693 Lbls
10:22 Flight Length: 601 NM
10:22 TOD Land Length: 66 NM

Route Map